createdAt,value
2023-03-03T00:02:03.482Z,34.45
2023-03-03T00:07:06.232Z,31.50
2023-03-03T00:12:21.987Z,34.57
2023-03-03T00:17:27.985Z,35.55
2023-03-03T00:22:39.252Z,29.83
2023-03-03T00:27:42.994Z,33.42
2023-03-03T00:32:50.486Z,27.50
2023-03-03T00:38:01.991Z,29.98
2023-03-03T00:43:24.076Z,31.48
2023-03-03T00:48:50.850Z,30.73
2023-03-03T00:53:55.249Z,36.08
2023-03-03T00:58:58.409Z,26.90
2023-03-03T01:04:06.320Z,30.45
2023-03-03T01:09:10.267Z,23.65
2023-03-03T01:14:12.941Z,23.98
2023-03-03T01:19:17.096Z,27.08
2023-03-03T01:24:24.090Z,28.75
2023-03-03T01:29:26.819Z,25.08
2023-03-03T01:34:29.748Z,22.47
2023-03-03T01:39:34.171Z,25.80
2023-03-03T01:44:36.775Z,25.77
2023-03-03T01:49:56.105Z,25.02
2023-03-03T01:55:05.673Z,33.45
2023-03-03T02:00:11.570Z,36.63
2023-03-03T02:05:18.379Z,31.55
2023-03-03T02:10:21.951Z,36.67
2023-03-03T02:15:26.596Z,31.27
2023-03-03T02:20:52.436Z,33.40
2023-03-03T02:25:59.250Z,30.35
2023-03-03T02:31:13.742Z,28.20
2023-03-03T02:36:28.074Z,22.92
2023-03-03T02:41:37.288Z,28.23
2023-03-03T02:46:46.321Z,23.05
2023-03-03T02:51:55.458Z,20.75
2023-03-03T02:56:59.926Z,24.50
2023-03-03T03:02:04.724Z,25.73
2023-03-03T03:07:07.861Z,27.50
2023-03-03T03:12:13.148Z,25.75
2023-03-03T03:17:16.300Z,23.95
2023-03-03T03:22:20.088Z,26.15
2023-03-03T03:32:29.973Z,24.50
2023-03-03T03:37:33.853Z,23.13
2023-03-03T03:42:38.794Z,27.42
2023-03-03T03:47:45.548Z,25.77
2023-03-03T03:52:50.721Z,27.33
2023-03-03T03:57:53.842Z,25.98
2023-03-03T04:02:58.991Z,24.92
2023-03-03T04:08:02.876Z,26.70
2023-03-03T04:13:09.564Z,25.17
2023-03-03T04:18:14.675Z,19.13
2023-03-03T04:23:19.875Z,23.20
2023-03-03T04:28:25.428Z,21.98
2023-03-03T04:33:28.661Z,25.85
2023-03-03T04:38:31.869Z,22.05
2023-03-03T04:43:35.629Z,20.77
2023-03-03T04:48:46.002Z,18.08
2023-03-03T04:53:50.008Z,18.25
2023-03-03T04:58:53.244Z,26.88
2023-03-03T05:03:59.700Z,27.15
2023-03-03T05:09:04.249Z,20.65
2023-03-03T05:14:08.394Z,15.57
2023-03-03T05:19:11.486Z,15.65
2023-03-03T05:24:14.562Z,19.40
2023-03-03T05:29:17.491Z,16.33
2023-03-03T05:34:21.109Z,14.02
2023-03-03T05:44:28.650Z,16.77
2023-03-03T05:49:32.533Z,18.63
2023-03-03T05:54:35.892Z,16.70
2023-03-03T05:59:38.545Z,17.17
2023-03-03T06:04:45.134Z,18.20
2023-03-03T06:09:47.987Z,21.60
2023-03-03T06:14:55.741Z,12.87
2023-03-03T06:19:58.333Z,15.90
2023-03-03T06:25:01.034Z,18.17
2023-03-03T06:30:05.117Z,17.65
2023-03-03T06:35:08.910Z,17.55
2023-03-03T06:40:14.490Z,17.08
2023-03-03T06:45:17.363Z,24.95
2023-03-03T06:50:25.947Z,22.30
2023-03-03T06:55:28.713Z,36.75
2023-03-03T07:00:35.207Z,65.35
2023-03-03T07:05:40.558Z,42.28
2023-03-03T07:10:45.440Z,26.73
2023-03-03T07:15:53.796Z,30.30
2023-03-03T07:21:17.174Z,28.77
2023-03-03T07:26:33.176Z,25.08
2023-03-03T07:31:42.173Z,47.20
2023-03-03T07:36:46.909Z,43.58
2023-03-03T07:41:53.330Z,28.05
2023-03-03T07:47:01.446Z,23.20
2023-03-03T07:52:25.141Z,34.10
2023-03-03T07:57:40.965Z,31.50
2023-03-03T08:03:10.138Z,28.42
2023-03-03T08:08:21.500Z,26.48
2023-03-03T08:13:38.989Z,37.92
2023-03-03T08:18:51.817Z,30.50
2023-03-03T08:23:58.057Z,28.27
2023-03-03T08:29:01.619Z,35.72
2023-03-03T08:34:06.575Z,35.40
2023-03-03T08:44:15.386Z,26.25
2023-03-03T08:49:47.927Z,19.88
2023-03-03T08:55:59.699Z,23.95
2023-03-03T09:01:08.792Z,24.70
2023-03-03T09:06:14.449Z,24.73
2023-03-03T09:11:25.484Z,24.35
2023-03-03T09:16:41.228Z,35.40
2023-03-03T09:21:44.272Z,25.73
2023-03-03T09:26:53.257Z,19.13
2023-03-03T09:32:02.732Z,18.60
2023-03-03T09:37:34.585Z,19.85
2023-03-03T09:42:53.790Z,19.67
2023-03-03T09:48:29.595Z,17.55
2023-03-03T09:53:57.457Z,21.10
2023-03-03T09:59:41.931Z,13.27
2023-03-03T10:05:30.262Z,12.18
2023-03-03T10:10:54.553Z,14.45
2023-03-03T10:16:32.611Z,14.32
2023-03-03T10:21:52.226Z,12.50
2023-03-03T10:27:13.927Z,22.23
2023-03-03T10:32:27.280Z,14.85
2023-03-03T10:38:00.613Z,13.82
2023-03-03T10:43:15.332Z,12.90
2023-03-03T10:48:49.368Z,15.02
2023-03-03T10:54:18.504Z,13.95
2023-03-03T10:59:28.322Z,17.08
2023-03-03T11:05:02.487Z,32.37
2023-03-03T11:10:54.499Z,32.95
2023-03-03T11:16:27.932Z,34.53
2023-03-03T11:22:02.367Z,63.53
2023-03-03T11:27:15.952Z,48.03
2023-03-03T11:32:32.872Z,31.13
2023-03-03T11:38:20.175Z,40.70
2023-03-03T11:43:51.907Z,40.35
2023-03-03T11:48:54.507Z,27.48
2023-03-03T11:54:01.796Z,35.42
2023-03-03T11:59:35.990Z,32.90
2023-03-03T12:10:29.955Z,24.30
2023-03-03T12:15:42.654Z,21.63
2023-03-03T12:21:21.594Z,23.73
2023-03-03T12:27:00.318Z,30.80
2023-03-03T12:32:24.459Z,30.30
2023-03-03T12:38:27.748Z,27.20
2023-03-03T12:44:15.914Z,20.35
2023-03-03T12:49:42.678Z,38.33
2023-03-03T12:55:28.683Z,29.73
2023-03-03T13:01:24.779Z,27.35
2023-03-03T13:06:54.456Z,35.63
2023-03-03T13:12:36.570Z,29.70
2023-03-03T13:17:59.273Z,21.70
2023-03-03T13:23:33.722Z,68.65
2023-03-03T13:28:48.646Z,49.20
2023-03-03T13:33:59.554Z,42.45
2023-03-03T13:39:15.288Z,44.53
2023-03-03T13:44:23.148Z,38.30
2023-03-03T13:49:29.792Z,38.58
2023-03-03T13:54:56.578Z,30.90
2023-03-03T14:00:17.957Z,32.17
2023-03-03T14:05:46.640Z,23.73
2023-03-03T14:11:13.970Z,27.88
2023-03-03T14:16:52.336Z,47.10
2023-03-03T14:22:36.391Z,46.47
2023-03-03T14:27:49.790Z,29.65
2023-03-03T14:33:36.857Z,34.03
2023-03-03T14:38:45.078Z,35.90
2023-03-03T14:44:30.460Z,26.42
2023-03-03T14:49:37.205Z,25.02
2023-03-03T14:54:42.686Z,44.30
2023-03-03T15:00:15.384Z,39.38
2023-03-03T15:05:24.274Z,43.05
2023-03-03T15:10:49.600Z,46.90
2023-03-03T15:16:24.160Z,46.13
2023-03-03T15:21:36.709Z,54.22
2023-03-03T15:27:07.632Z,45.45
2023-03-03T15:32:37.330Z,35.75
2023-03-03T15:38:19.025Z,37.13
2023-03-03T15:43:37.832Z,58.17
2023-03-03T15:49:01.428Z,35.05
2023-03-03T15:59:44.091Z,35.40
2023-03-03T16:05:00.253Z,34.50
2023-03-03T16:10:19.138Z,61.22
2023-03-03T16:21:45.165Z,72.60
2023-03-03T16:27:00.294Z,83.43
2023-03-03T16:32:16.949Z,64.18
2023-03-03T16:37:31.134Z,50.58
2023-03-03T16:42:43.407Z,85.45
2023-03-03T16:48:05.127Z,60.25
2023-03-03T16:53:20.315Z,49.83
2023-03-03T16:58:41.661Z,38.13
2023-03-03T17:04:07.106Z,45.47
2023-03-03T17:09:34.112Z,44.97
2023-03-03T17:14:54.997Z,32.88
2023-03-03T17:20:31.741Z,36.55
2023-03-03T17:25:59.205Z,31.33
2023-03-03T17:31:38.857Z,41.85
2023-03-03T17:36:59.921Z,34.35
2023-03-03T17:42:23.321Z,37.72
2023-03-03T17:47:52.115Z,37.90
2023-03-03T17:53:10.208Z,36.90
2023-03-03T17:58:45.132Z,132.93
2023-03-03T18:04:33.229Z,149.50
2023-03-03T18:09:47.936Z,62.78
2023-03-03T18:15:16.457Z,65.00
2023-03-03T18:20:44.991Z,58.20
2023-03-03T18:26:02.570Z,95.40
2023-03-03T18:31:33.992Z,46.25
2023-03-03T18:37:07.091Z,37.28
2023-03-03T18:42:15.975Z,41.73
2023-03-03T18:47:20.357Z,71.35
2023-03-03T18:52:32.201Z,43.30
2023-03-03T18:57:37.559Z,52.45
2023-03-03T19:02:53.953Z,40.15
2023-03-03T19:08:00.913Z,50.78
2023-03-03T19:13:42.881Z,67.05
2023-03-03T19:18:47.684Z,69.55
2023-03-03T19:24:01.016Z,56.10
2023-03-03T19:29:30.789Z,75.72
2023-03-03T19:34:41.325Z,75.07
2023-03-03T19:39:54.732Z,60.88
2023-03-03T19:45:21.560Z,44.00
2023-03-03T19:50:33.263Z,58.90
2023-03-03T19:56:02.707Z,54.38
2023-03-03T20:01:33.448Z,46.38
2023-03-03T20:06:52.699Z,41.53
2023-03-03T20:12:15.120Z,49.13
2023-03-03T20:17:44.229Z,48.30
2023-03-03T20:23:24.769Z,34.22
2023-03-03T20:28:54.848Z,32.00
2023-03-03T20:34:52.636Z,35.50
2023-03-03T20:40:27.963Z,33.28
2023-03-03T20:45:49.129Z,28.60
2023-03-03T20:51:16.427Z,29.77
2023-03-03T20:56:29.590Z,28.15
2023-03-03T21:01:44.280Z,27.30
2023-03-03T21:06:47.901Z,24.83
2023-03-03T21:16:57.203Z,27.00
2023-03-03T21:22:04.856Z,24.95
2023-03-03T21:27:28.803Z,21.50
2023-03-03T21:32:47.464Z,21.98
2023-03-03T21:37:59.343Z,20.70
2023-03-03T21:43:05.732Z,21.27
2023-03-03T21:58:44.037Z,21.17
2023-03-03T22:03:46.988Z,24.08
2023-03-03T22:08:51.025Z,22.07
2023-03-03T22:13:56.713Z,18.35
2023-03-03T22:19:01.726Z,18.58
2023-03-03T22:24:11.892Z,18.02
2023-03-03T22:29:22.882Z,17.60
2023-03-03T22:34:28.340Z,17.88
2023-03-03T22:39:35.975Z,16.80
2023-03-03T22:44:42.529Z,16.83
2023-03-03T22:49:47.490Z,16.40
2023-03-03T22:55:04.312Z,16.27
2023-03-03T23:00:11.981Z,16.23
2023-03-03T23:05:15.969Z,15.50
2023-03-03T23:10:21.854Z,18.55
2023-03-03T23:15:32.181Z,20.70
2023-03-03T23:20:35.142Z,19.10
2023-03-03T23:25:40.239Z,22.33
2023-03-03T23:30:43.241Z,28.92
2023-03-03T23:35:45.837Z,29.57
2023-03-03T23:40:50.526Z,31.05
2023-03-03T23:45:54.238Z,23.48
2023-03-03T23:50:59.550Z,22.60
2023-03-03T23:56:03.523Z,24.75
